Allagash, Maine
Current Conditions -  °F | °C
As of 12:53 AM on Monday 22 Dec 2014 (Local Time) from KFVE Reporting Station
Overcast Overcast  
Wind Chill: -8°   Ceiling: 1600
Heat Index: -8°   Visibility: 10mi
Dew Point: -8°   Wind: 3mph
Humidity: 96%   Direction: 180°S
Pressure: 30.35"   Gusts: NA
Location:  47.1951°N, 69.2728°W
Report Text: KFVE 220553Z AUTO 18003KT 10SM FEW009 OVC016 M08/M08 A3035 RMK AO2 SLP292 I6000 T10781083 11072 21078 53004
Loading
Personal Weather Stations






























Interactive Weather Map New forecast layout! Learn more

10-Day Weather Forecast

Advertisements
Track Severe Weather on mobile